Terminal Aerodrome Forecast
Issued by NWS Shreveport, LA

Home | Current Version | Previous Version | Text Only | Print | Product List | Glossary On
Versions: 1 2 3 4 5 6 7 8 9 10 11 12 13
000
FTUS44 KSHV 211145
TAFMLU
TAF
KMLU 211145Z 2112/2212 10003KT P6SM BKN150
     FM211800 15008KT P6SM BKN150
     FM220400 13007KT P6SM VCTS OVC030CB
     FM220800 16008KT 5SM TSRA BR SCT010 OVC020CB=

USA.gov is the U.S. government's official web portal to all federal, state and local government web resources and services.